• Join FlightAware (Why Join?)
  • Login
  • US Flag 
07:45AM EDT


 

Airport Tracker/Info


-or-


 

Live Flight TrackerFlight Track Log ✈ LMO358 ✈ 26-Jul-2013 ✈ KFOK - KBHB

Flight Track Log - Related Links

Times and Time Zones

All times are in EDT time to prevent confusion due to time zone crossing. See the LMO358 flight status page for this flight to view local times or setup timezone preferences in your user account.

Time Position Orientation Groundspeed Altitude Reporting Facility
EDT Latitude Longitude Course Direction KTS MPH feet Rate Location/Type
06:26PM 40.7956 -72.5717 102° East 166 191 3,000  Level Boston Center
06:27PM 40.7811 -72.4786 102° East 201 231 5,600 2,820 Climbing Boston Center
06:29PM 40.8269 -72.4072 50° Northeast 212 244 8,800 2,160 Climbing Boston Center
06:29PM 40.8936 -72.3414 37° Northeast 243 280 9,900 600 Climbing Boston Center
06:30PM 40.9686 -72.2642 38° Northeast 285 328 10,000 780 Climbing Boston Center
06:32PM 41.0456 -72.1786 40° Northeast 332 382 11,600 1,860 Climbing Boston Center
06:33PM 41.1244 -72.0900 40° Northeast 351 404 13,800 2,280 Climbing Boston Center
06:33PM 41.2053 -72.0042 39° Northeast 369 425 16,100 2,160 Climbing Boston Center
06:34PM 41.2925 -71.9125 38° Northeast 381 438 18,100 1,800 Climbing Boston Center
06:36PM 41.3714 -71.8261 39° Northeast 401 461 19,800 1,680 Climbing Boston Center
06:37PM 41.4603 -71.7256 40° Northeast 407 468 21,600 1,560 Climbing Boston Center
06:37PM 41.5533 -71.6217 40° Northeast 407 468 23,000 1,320 Climbing Boston Center
06:39PM 41.6486 -71.5233 38° Northeast 423 487 24,300 1,380 Climbing Boston Center
06:40PM 41.7436 -71.4244 38° Northeast 428 493 25,900 1,320 Climbing Boston Center
06:40PM 41.8447 -71.3142 39° Northeast 428 493 27,000 480 Climbing Boston Center
06:41PM 41.9456 -71.2064 38° Northeast 435 501 26,900 -60 Descending Boston Center
06:43PM 42.0486 -71.0981 38° Northeast 456 525 26,900 300 Level Boston Center
06:44PM 42.1472 -70.9925 38° Northeast 461 531 27,600 1,020 Climbing Boston Center
06:45PM 42.2439 -70.8864 39° Northeast 456 525 29,000 660 Climbing Boston Center
06:45PM 42.3406 -70.7969 34° Northeast 456 525 29,000  Level Boston Center
06:46PM 42.4600 -70.6981 31° Northeast 478 550 29,000  Level Boston Center
06:48PM 42.5981 -70.5897 30° Northeast 508 585 29,000  Level Boston Center
06:49PM 42.6900 -70.4883 39° Northeast 515 593 29,000  Level Boston Center
06:49PM 42.8042 -70.3458 42° Northeast 515 593 29,000  Level Boston Center
06:50PM 42.9286 -70.2056 40° Northeast 515 593 29,000  Level Boston Center
06:51PM 43.0514 -70.0931 34° Northeast 520 598 29,000  Level Boston Center
06:53PM 43.1711 -70.0286 21° North 509 586 29,000  Level Boston Center
06:54PM 43.3050 -69.9636 19° North 509 586 29,000  Level Boston Center
06:54PM 43.4411 -69.8894 22° Northeast 514 592 29,000 -420 Level Boston Center
06:55PM 43.5706 -69.8064 25° Northeast 514 592 28,200 -1,380 Descending Boston Center
06:56PM 43.6633 -69.6819 44° Northeast 490 564 26,300 -1,980 Descending Boston Center
06:58PM 43.7433 -69.5431 51° Northeast 468 539 24,300 -2,400 Descending Boston Center
06:59PM 43.8275 -69.4094 49° Northeast 457 526 21,500 -3,000 Descending Boston Center
06:59PM 43.9053 -69.2817 50° Northeast 447 514 18,500 -2,700 Descending Boston Center
07:00PM 43.9631 -69.1833 51° Northeast 430 495 16,200 -2,940 Descending Boston Center
07:02PM 44.0486 -69.0458 49° Northeast 407 468 12,600 -2,580 Descending Boston Center
07:03PM 44.1142 -68.9350 50° Northeast 381 438 11,000 -1,080 Descending Boston Center
07:03PM 44.1717 -68.8389 50° Northeast 348 400 10,500 -840 Descending Boston Center
07:04PM 44.2294 -68.7572 45° Northeast 311 358 9,400 -1,140 Descending Boston Center
07:05PM 44.2986 -68.7064 28° Northeast 287 330 8,300 -1,140 Descending Boston Center
07:07PM 44.3617 -68.6561 30° Northeast 267 307 7,200 -1,140 Descending Boston Center
07:08PM 44.4289 -68.6053 28° Northeast 261 300 6,100 -1,200 Descending Boston Center
07:09PM 44.5100 -68.5389 30° Northeast 261 300 4,700 -1,200 Descending Boston Center
07:10PM 44.5664 -68.4797 37° Northeast 261 300 3,600 -900 Descending Boston Center
07:11PM 44.6222 -68.4117 41° Northeast 261 300 3,000 -300 Descending Boston Center
07:12PM 44.6403 -68.3344 72° East 227 261 3,000 -300 Level Boston Center
07:13PM 44.6172 -68.2719 117° Southeast 173 199 2,500 -300 Descending Boston Center
07:14PM 44.5719 -68.2897 196° South 113 130 2,500 -360 Level Boston Center
07:15PM 44.5375 -68.3125 205° Southwest 113 130 1,800 -660 Descending Boston Center
07:16PM 44.5028 -68.3356 205° Southwest 126 145 1,100 -600 Descending Boston Center
07:17PM 44.4597 -68.3531 196° South 126 145 600 -540 Descending Boston Center